Time;durP1;ratioP1;P1;durP2;ratioP2;P2;SDS_P1;SDS_P2;PMS_P1;PMS_P2;Temp;Humidity;BMP_temperature;BMP_pressure;BME280_temperature;BME280_humidity;BME280_pressure;Samples;Min_cycle;Max_cycle;Signal;HPM_P1;HPM_P2
2022/09/24 00:00:56;;;;;;;;;;;;;;;;;;5032147;28;20367;-65
2022/09/24 00:03:23;;;;;;;;;;;;;;;;;;5033839;28;20909;-66
2022/09/24 00:05:49;;;;;;;;;;;;;;;;;;5029844;28;20361;-65
2022/09/24 00:08:15;;;;;;;;;;;;;;;;;;5033058;28;20592;-65
2022/09/24 00:10:41;;;;;;;;;;;;;;;;;;5028680;28;20277;-65
2022/09/24 00:13:07;;;;;;;;;;;;;;;;;;5032731;28;20134;-66
2022/09/24 00:15:33;;;;;;;;;;;;;;;;;;5033379;28;19905;-65
2022/09/24 00:17:59;;;;;;;;;;;;;;;;;;5017232;28;20285;-66
2022/09/24 00:20:25;;;;;;;;;;;;;;;;;;5032506;28;20722;-66
2022/09/24 00:22:51;;;;;;;;;;;;;;;;;;5032457;28;20332;-64
2022/09/24 00:28:01;;;;;;;;;;;;;;;;;;5032800;28;20012;-65
2022/09/24 00:30:27;;;;;;;;;;;;;;;;;;5033174;28;19992;-66
2022/09/24 00:32:53;;;;;;;;;;;;;;;;;;5032895;28;20420;-65
2022/09/24 00:35:19;;;;;;;;;;;;;;;;;;5032412;28;19942;-66
2022/09/24 00:37:44;;;;;;;;;;;;;;;;;;5032111;28;20394;-66
2022/09/24 00:40:10;;;;;;;;;;;;;;;;;;5033032;28;19912;-67
2022/09/24 00:42:36;;;;;;;;;;;;;;;;;;5032145;28;19967;-67
2022/09/24 00:45:03;;;;;;;;;;;;;;;;;;5031378;28;20240;-66
2022/09/24 00:47:29;;;;;;;;;;;;;;;;;;5032537;28;20489;-67
2022/09/24 00:49:55;;;;;;;;;;;;;;;;;;5032142;28;21107;-67
2022/09/24 00:52:21;;;;;;;;;;;;;;;;;;5031914;28;20418;-66
2022/09/24 00:54:47;;;;;;;;;;;;;;;;;;5030905;28;20413;-63
2022/09/24 00:57:12;;;;;;;;;;;;;;;;;;5031944;28;20000;-66
2022/09/24 00:59:38;;;;;;;;;;;;;;;;;;5032011;28;20078;-66
2022/09/24 01:02:06;;;;;;;;;;;;;;;;;;5032014;28;20298;-67
2022/09/24 01:04:32;;;;;;;;;;;;;;;;;;5032725;28;19936;-64
2022/09/24 01:06:58;;;;;;;;;;;;;;;;;;5031346;28;19971;-67
2022/09/24 01:09:24;;;;;;;;;;;;;;;;;;5031859;28;19912;-67
2022/09/24 01:11:49;;;;;;;;;;;;;;;;;;5031865;28;19975;-67
2022/09/24 01:14:15;;;;;;;;;;;;;;;;;;5030761;28;20276;-66
2022/09/24 01:16:41;;;;;;;;;;;;;;;;;;5031679;28;20490;-66
2022/09/24 01:19:08;;;;;;;;;;;;;;;;;;5030846;28;20355;-67
2022/09/24 01:21:33;;;;;;;;;;;;;;;;;;5031122;28;20848;-66
2022/09/24 01:23:59;;;;;;;;;;;;;;;;;;5026304;28;20406;-66
2022/09/24 01:26:27;;;;;;;;;;;;;;;;;;5031246;28;20345;-67
2022/09/24 01:28:54;;;;;;;;;;;;;;;;;;5031819;28;20371;-67
2022/09/24 01:31:19;;;;;;;;;;;;;;;;;;5027432;28;20446;-67
2022/09/24 01:33:45;;;;;;;;;;;;;;;;;;5028781;28;20473;-67
2022/09/24 01:36:11;;;;;;;;;;;;;;;;;;5027206;28;20906;-67
2022/09/24 01:38:38;;;;;;;;;;;;;;;;;;5031301;28;20959;-66
2022/09/24 01:41:03;;;;;;;;;;;;;;;;;;5031317;28;20359;-66
2022/09/24 01:43:31;;;;;;;;;;;;;;;;;;5031288;28;20375;-67
2022/09/24 01:45:57;;;;;;;;;;;;;;;;;;5031394;28;20462;-66
2022/09/24 01:48:23;;;;;;;;;;;;;;;;;;5030720;28;20927;-67
2022/09/24 01:50:49;;;;;;;;;;;;;;;;;;5030539;28;20378;-68
2022/09/24 01:53:15;;;;;;;;;;;;;;;;;;5031149;28;20412;-67
2022/09/24 01:55:41;;;;;;;;;;;;;;;;;;5031302;28;20373;-65
2022/09/24 01:58:07;;;;;;;;;;;;;;;;;;5031349;28;20359;-66
2022/09/24 02:00:33;;;;;;;;;;;;;;;;;;5031435;28;20432;-66
2022/09/24 02:02:59;;;;;;;;;;;;;;;;;;5031013;28;20450;-66
2022/09/24 02:05:25;;;;;;;;;;;;;;;;;;5030855;28;20368;-66
2022/09/24 02:07:51;;;;;;;;;;;;;;;;;;4901401;28;20416;-66
2022/09/24 02:10:17;;;;;;;;;;;;;;;;;;5030958;28;20448;-66
2022/09/24 02:12:43;;;;;;;;;;;;;;;;;;5031260;28;20315;-65
2022/09/24 02:15:10;;;;;;;;;;;;;;;;;;5030738;28;20285;-67
2022/09/24 02:17:35;;;;;;;;;;;;;;;;;;5030752;28;20367;-66
2022/09/24 02:20:01;;;;;;;;;;;;;;;;;;5030676;28;19992;-66
2022/09/24 02:22:27;;;;;;;;;;;;;;;;;;4895340;28;20423;-68
2022/09/24 02:24:53;;;;;;;;;;;;;;;;;;5030882;28;20463;-67
2022/09/24 02:27:20;;;;;;;;;;;;;;;;;;5031084;28;20454;-67
2022/09/24 02:29:46;;;;;;;;;;;;;;;;;;5031209;28;20858;-67
2022/09/24 02:32:12;;;;;;;;;;;;;;;;;;5031009;28;20375;-66
2022/09/24 02:34:38;;;;;;;;;;;;;;;;;;5030536;28;20417;-66
2022/09/24 02:37:04;;;;;;;;;;;;;;;;;;4892450;28;20340;-66
2022/09/24 02:39:30;;;;;;;;;;;;;;;;;;5030896;28;20370;-66
2022/09/24 02:41:56;;;;;;;;;;;;;;;;;;5030882;28;20720;-66
2022/09/24 02:44:22;;;;;;;;;;;;;;;;;;5024158;28;20494;-67
2022/09/24 02:46:49;;;;;;;;;;;;;;;;;;5030865;28;20879;-65
2022/09/24 02:49:15;;;;;;;;;;;;;;;;;;5029967;28;20383;-66
2022/09/24 02:51:41;;;;;;;;;;;;;;;;;;5030714;28;20740;-66
2022/09/24 02:54:07;;;;;;;;;;;;;;;;;;4881158;28;20346;-66
2022/09/24 02:56:33;;;;;;;;;;;;;;;;;;5030567;28;20378;-66
2022/09/24 02:59:00;;;;;;;;;;;;;;;;;;5030774;28;20846;-67
2022/09/24 03:01:26;;;;;;;;;;;;;;;;;;5029131;28;20332;-66
2022/09/24 03:03:52;;;;;;;;;;;;;;;;;;5030037;28;20313;-66
2022/09/24 03:06:18;;;;;;;;;;;;;;;;;;5030648;28;20197;-67
2022/09/24 03:08:44;;;;;;;;;;;;;;;;;;5030565;28;20375;-67
2022/09/24 03:11:10;;;;;;;;;;;;;;;;;;5030392;28;20261;-67
2022/09/24 03:13:36;;;;;;;;;;;;;;;;;;5030733;28;20271;-67
2022/09/24 03:16:01;;;;;;;;;;;;;;;;;;5030233;28;20139;-65
2022/09/24 03:18:27;;;;;;;;;;;;;;;;;;5030136;28;20771;-65
2022/09/24 03:20:53;;;;;;;;;;;;;;;;;;5030075;28;20378;-67
2022/09/24 03:23:19;;;;;;;;;;;;;;;;;;5033663;28;20363;-65
2022/09/24 03:25:45;;;;;;;;;;;;;;;;;;5033743;28;20761;-66
2022/09/24 03:28:11;;;;;;;;;;;;;;;;;;5034014;28;20290;-66
2022/09/24 03:33:22;;;;;;;;;;;;;;;;;;5033107;28;20145;-66
2022/09/24 03:35:47;;;;;;;;;;;;;;;;;;5033707;28;19905;-66
2022/09/24 03:38:13;;;;;;;;;;;;;;;;;;5033674;28;20297;-66
2022/09/24 03:40:39;;;;;;;;;;;;;;;;;;5033801;28;19909;-65
2022/09/24 03:43:05;;;;;;;;;;;;;;;;;;5033892;28;20279;-67
2022/09/24 03:45:31;;;;;;;;;;;;;;;;;;5033767;28;20787;-67
2022/09/24 03:47:57;;;;;;;;;;;;;;;;;;5033029;28;20142;-66
2022/09/24 03:50:23;;;;;;;;;;;;;;;;;;5032971;28;20207;-66
2022/09/24 03:52:49;;;;;;;;;;;;;;;;;;5033612;28;20878;-66
2022/09/24 03:55:14;;;;;;;;;;;;;;;;;;5033136;28;20367;-66
2022/09/24 03:57:40;;;;;;;;;;;;;;;;;;5033348;28;20123;-67
2022/09/24 04:00:06;;;;;;;;;;;;;;;;;;5033520;28;20000;-66
2022/09/24 04:02:32;;;;;;;;;;;;;;;;;;5032537;28;20357;-64
2022/09/24 04:04:58;;;;;;;;;;;;;;;;;;5033133;28;20123;-66
2022/09/24 04:07:24;;;;;;;;;;;;;;;;;;5033065;28;19917;-66
2022/09/24 04:09:50;;;;;;;;;;;;;;;;;;5033143;28;20619;-64
2022/09/24 04:12:16;;;;;;;;;;;;;;;;;;5033452;28;20497;-67
2022/09/24 04:14:42;;;;;;;;;;;;;;;;;;5026826;28;20836;-66
2022/09/24 04:17:07;;;;;;;;;;;;;;;;;;5032522;28;20336;-66
2022/09/24 04:19:33;;;;;;;;;;;;;;;;;;5033036;28;20383;-67
2022/09/24 04:21:59;;;;;;;;;;;;;;;;;;5032678;28;20409;-67
2022/09/24 04:24:25;;;;;;;;;;;;;;;;;;5032650;28;20807;-67
2022/09/24 04:26:51;;;;;;;;;;;;;;;;;;5033237;28;20390;-66
2022/09/24 04:29:17;;;;;;;;;;;;;;;;;;5032527;28;20359;-66
2022/09/24 04:31:44;;;;;;;;;;;;;;;;;;4942361;28;20175;-67
2022/09/24 04:34:10;;;;;;;;;;;;;;;;;;5032074;28;20367;-65
2022/09/24 04:36:36;;;;;;;;;;;;;;;;;;5032630;28;19931;-66
2022/09/24 04:39:02;;;;;;;;;;;;;;;;;;5032581;28;19905;-65
2022/09/24 04:41:28;;;;;;;;;;;;;;;;;;5032701;28;19905;-66
2022/09/24 04:43:54;;;;;;;;;;;;;;;;;;5032320;28;20004;-65
2022/09/24 04:46:19;;;;;;;;;;;;;;;;;;5032067;28;20428;-66
2022/09/24 04:48:45;;;;;;;;;;;;;;;;;;5032253;28;19941;-66
2022/09/24 04:51:11;;;;;;;;;;;;;;;;;;5032127;28;20424;-67
2022/09/24 04:53:37;;;;;;;;;;;;;;;;;;5032176;28;19913;-66
2022/09/24 04:56:03;;;;;;;;;;;;;;;;;;5026116;28;19956;-64
2022/09/24 04:58:29;;;;;;;;;;;;;;;;;;5031883;28;20000;-65
2022/09/24 05:00:55;;;;;;;;;;;;;;;;;;5031779;28;20335;-65
2022/09/24 05:03:21;;;;;;;;;;;;;;;;;;5032185;28;19909;-66
2022/09/24 05:05:47;;;;;;;;;;;;;;;;;;5032562;28;20031;-65
2022/09/24 05:08:13;;;;;;;;;;;;;;;;;;5031610;28;19913;-66
2022/09/24 05:10:38;;;;;;;;;;;;;;;;;;5032105;28;19905;-65
2022/09/24 05:13:04;;;;;;;;;;;;;;;;;;5031742;28;20285;-66
2022/09/24 05:15:30;;;;;;;;;;;;;;;;;;5031873;28;19912;-65
2022/09/24 05:17:56;;;;;;;;;;;;;;;;;;5025462;28;19905;-66
2022/09/24 05:20:22;;;;;;;;;;;;;;;;;;5032005;28;19905;-65
2022/09/24 05:22:48;;;;;;;;;;;;;;;;;;5032243;28;19951;-65
2022/09/24 05:25:14;;;;;;;;;;;;;;;;;;5031431;28;19988;-65
2022/09/24 05:27:40;;;;;;;;;;;;;;;;;;5031083;28;19924;-65
2022/09/24 05:30:06;;;;;;;;;;;;;;;;;;5031597;28;20521;-66
2022/09/24 05:32:32;;;;;;;;;;;;;;;;;;5031176;28;19905;-66
2022/09/24 05:34:58;;;;;;;;;;;;;;;;;;5031507;28;19909;-65
2022/09/24 05:37:24;;;;;;;;;;;;;;;;;;5031565;28;19909;-65
2022/09/24 05:39:50;;;;;;;;;;;;;;;;;;5024994;28;19909;-64
2022/09/24 05:42:16;;;;;;;;;;;;;;;;;;5030860;28;19909;-66
2022/09/24 05:44:42;;;;;;;;;;;;;;;;;;5030760;28;19917;-66
2022/09/24 05:47:08;;;;;;;;;;;;;;;;;;5031258;28;19923;-66
2022/09/24 05:49:34;;;;;;;;;;;;;;;;;;5031418;28;20281;-66
2022/09/24 05:52:00;;;;;;;;;;;;;;;;;;5031583;28;19959;-66
2022/09/24 05:54:26;;;;;;;;;;;;;;;;;;5031472;28;20110;-66
2022/09/24 05:56:52;;;;;;;;;;;;;;;;;;5030633;28;20398;-65
2022/09/24 05:59:18;;;;;;;;;;;;;;;;;;5030846;28;19916;-66
2022/09/24 06:01:44;;;;;;;;;;;;;;;;;;5030871;28;20281;-65
2022/09/24 06:04:10;;;;;;;;;;;;;;;;;;5031095;28;20386;-65
2022/09/24 06:06:36;;;;;;;;;;;;;;;;;;5031185;28;20839;-64
2022/09/24 06:09:02;;;;;;;;;;;;;;;;;;5030989;28;20398;-65
2022/09/24 06:11:33;;;;;;;;;;;;;;;;;;5030472;28;20367;-63
2022/09/24 06:13:58;;;;;;;;;;;;;;;;;;5030794;28;20762;-65
2022/09/24 06:16:24;;;;;;;;;;;;;;;;;;5029711;28;20375;-64
2022/09/24 06:18:50;;;;;;;;;;;;;;;;;;5024256;28;20429;-64
2022/09/24 06:21:16;;;;;;;;;;;;;;;;;;5025033;28;20391;-64
2022/09/24 06:23:44;;;;;;;;;;;;;;;;;;5031165;28;20379;-66
2022/09/24 06:26:10;;;;;;;;;;;;;;;;;;5030576;28;20379;-65
2022/09/24 06:28:35;;;;;;;;;;;;;;;;;;5031217;28;20449;-66
2022/09/24 06:31:01;;;;;;;;;;;;;;;;;;5024036;28;20740;-65
2022/09/24 06:33:29;;;;;;;;;;;;;;;;;;5031044;28;20370;-65
2022/09/24 06:35:55;;;;;;;;;;;;;;;;;;5030751;28;20370;-65
2022/09/24 06:38:21;;;;;;;;;;;;;;;;;;5031014;28;20371;-65
2022/09/24 06:40:50;;;;;;;;;;;;;;;;;;5030305;28;20363;-66
2022/09/24 06:43:16;;;;;;;;;;;;;;;;;;5031132;28;20368;-65
2022/09/24 06:45:42;;;;;;;;;;;;;;;;;;5030637;28;20113;-65
2022/09/24 06:48:08;;;;;;;;;;;;;;;;;;5028871;28;19935;-66
2022/09/24 06:50:34;;;;;;;;;;;;;;;;;;5031252;28;20048;-65
2022/09/24 06:53:00;;;;;;;;;;;;;;;;;;5030789;28;20298;-64
2022/09/24 06:55:26;;;;;;;;;;;;;;;;;;5030408;28;19912;-65
2022/09/24 06:57:52;;;;;;;;;;;;;;;;;;5027922;28;19909;-66
2022/09/24 07:00:18;;;;;;;;;;;;;;;;;;5034752;28;20390;-64
2022/09/24 07:02:44;;;;;;;;;;;;;;;;;;5034598;28;20277;-64
2022/09/24 07:05:09;;;;;;;;;;;;;;;;;;5034381;28;20368;-64
2022/09/24 07:07:36;;;;;;;;;;;;;;;;;;5034209;28;20760;-64
2022/09/24 07:10:02;;;;;;;;;;;;;;;;;;5034168;28;20866;-64
2022/09/24 07:12:28;;;;;;;;;;;;;;;;;;5034193;28;20134;-65
2022/09/24 07:14:54;;;;;;;;;;;;;;;;;;5034572;28;20261;-63
2022/09/24 07:17:20;;;;;;;;;;;;;;;;;;5034046;28;20382;-66
2022/09/24 07:19:45;;;;;;;;;;;;;;;;;;5034015;28;20863;-66
2022/09/24 07:22:11;;;;;;;;;;;;;;;;;;5033940;28;20730;-66
2022/09/24 07:24:37;;;;;;;;;;;;;;;;;;5032960;28;20862;-65
2022/09/24 07:27:03;;;;;;;;;;;;;;;;;;5032442;28;20478;-64
2022/09/24 07:29:29;;;;;;;;;;;;;;;;;;5033031;28;20374;-65
2022/09/24 07:31:55;;;;;;;;;;;;;;;;;;4877432;28;20290;-69
2022/09/24 07:34:21;;;;;;;;;;;;;;;;;;4849662;28;20430;-70
2022/09/24 07:36:47;;;;;;;;;;;;;;;;;;4841567;28;20120;-68
2022/09/24 07:39:13;;;;;;;;;;;;;;;;;;4834855;28;20124;-69
2022/09/24 07:41:41;;;;;;;;;;;;;;;;;;4830787;28;20123;-71
2022/09/24 07:44:07;;;;;;;;;;;;;;;;;;4831341;28;20090;-70
2022/09/24 07:46:33;;;;;;;;;;;;;;;;;;4830468;28;20148;-70
2022/09/24 07:48:58;;;;;;;;;;;;;;;;;;4826476;28;20161;-69
2022/09/24 07:51:26;;;;;;;;;;;;;;;;;;4825190;28;20624;-70
2022/09/24 07:53:51;;;;;;;;;;;;;;;;;;4821456;28;20576;-70
2022/09/24 07:56:18;;;;;;;;;;;;;;;;;;4819459;28;20175;-70
2022/09/24 07:58:44;;;;;;;;;;;;;;;;;;4813539;28;20108;-70
2022/09/24 08:01:10;;;;;;;;;;;;;;;;;;4812894;28;20685;-69
2022/09/24 08:03:36;;;;;;;;;;;;;;;;;;4807815;28;20121;-71
2022/09/24 08:06:01;;;;;;;;;;;;;;;;;;4811140;28;20102;-71
2022/09/24 08:08:27;;;;;;;;;;;;;;;;;;4811140;28;20145;-69
2022/09/24 08:10:53;;;;;;;;;;;;;;;;;;4809645;28;20140;-69
2022/09/24 08:13:19;;;;;;;;;;;;;;;;;;4809403;28;20113;-69
2022/09/24 08:15:45;;;;;;;;;;;;;;;;;;4808814;28;20105;-70
2022/09/24 08:18:11;;;;;;;;;;;;;;;;;;4804040;28;20118;-69
2022/09/24 08:20:37;;;;;;;;;;;;;;;;;;4797448;28;20118;-70
2022/09/24 08:23:03;;;;;;;;;;;;;;;;;;4804422;28;20110;-70
2022/09/24 08:25:30;;;;;;;;;;;;;;;;;;4801567;28;20513;-68
2022/09/24 08:27:55;;;;;;;;;;;;;;;;;;4797527;28;20128;-69
2022/09/24 08:30:21;;;;;;;;;;;;;;;;;;4796399;28;20131;-68
2022/09/24 08:32:47;;;;;;;;;;;;;;;;;;4796351;28;20121;-70
2022/09/24 08:35:14;;;;;;;;;;;;;;;;;;4794138;28;20140;-71
2022/09/24 08:37:40;;;;;;;;;;;;;;;;;;4792551;28;20141;-70
2022/09/24 08:40:06;;;;;;;;;;;;;;;;;;4790457;28;20137;-67
2022/09/24 08:42:33;;;;;;;;;;;;;;;;;;4788517;28;20173;-69
2022/09/24 08:47:44;;;;;;;;;;;;;;;;;;4784578;28;20751;-69
2022/09/24 08:50:10;;;;;;;;;;;;;;;;;;4815117;28;20240;-70
2022/09/24 08:52:36;;;;;;;;;;;;;;;;;;5031135;28;20404;-69
2022/09/24 08:55:02;;;;;;;;;;;;;;;;;;5031020;28;20748;-68
2022/09/24 08:57:28;;;;;;;;;;;;;;;;;;5031294;28;20383;-70
2022/09/24 08:59:54;;;;;;;;;;;;;;;;;;5030063;28;20905;-69
2022/09/24 09:02:19;;;;;;;;;;;;;;;;;;5030665;28;20371;-69
2022/09/24 09:04:45;;;;;;;;;;;;;;;;;;5030882;28;20812;-69
2022/09/24 09:07:11;;;;;;;;;;;;;;;;;;5030544;28;20452;-69
2022/09/24 09:09:37;;;;;;;;;;;;;;;;;;5030417;28;20752;-69
2022/09/24 09:12:03;;;;;;;;;;;;;;;;;;5030920;28;20398;-68
2022/09/24 09:14:29;;;;;;;;;;;;;;;;;;5031326;28;20869;-68
2022/09/24 09:16:55;;;;;;;;;;;;;;;;;;5025292;28;20371;-68
2022/09/24 09:19:21;;;;;;;;;;;;;;;;;;5029978;28;20371;-69
2022/09/24 09:21:51;;;;;;;;;;;;;;;;;;5031503;28;20385;-70
2022/09/24 09:24:17;;;;;;;;;;;;;;;;;;5030908;28;20432;-68
2022/09/24 09:26:43;;;;;;;;;;;;;;;;;;5030762;28;20485;-70
2022/09/24 09:29:08;;;;;;;;;;;;;;;;;;5030664;28;20444;-69
2022/09/24 09:31:34;;;;;;;;;;;;;;;;;;5030187;28;20843;-69
2022/09/24 09:34:00;;;;;;;;;;;;;;;;;;5030063;28;20382;-70
2022/09/24 09:36:26;;;;;;;;;;;;;;;;;;5022877;28;20870;-68
2022/09/24 09:38:52;;;;;;;;;;;;;;;;;;5000655;28;20359;-70
2022/09/24 09:41:18;;;;;;;;;;;;;;;;;;4783132;28;20317;-68
2022/09/24 09:43:44;;;;;;;;;;;;;;;;;;4779975;28;20148;-70
2022/09/24 09:46:10;;;;;;;;;;;;;;;;;;4778523;28;20773;-70
2022/09/24 09:48:35;;;;;;;;;;;;;;;;;;4777348;28;20168;-69
2022/09/24 09:51:04;;;;;;;;;;;;;;;;;;4774534;28;20825;-68
2022/09/24 09:53:30;;;;;;;;;;;;;;;;;;4776848;28;20142;-68
2022/09/24 09:55:56;;;;;;;;;;;;;;;;;;4776047;28;20197;-69
2022/09/24 09:58:22;;;;;;;;;;;;;;;;;;4773263;28;20682;-68
2022/09/24 10:00:48;;;;;;;;;;;;;;;;;;4773463;28;20152;-68
2022/09/24 10:03:14;;;;;;;;;;;;;;;;;;4769564;28;20184;-68
2022/09/24 10:05:40;;;;;;;;;;;;;;;;;;4772917;28;20157;-69
2022/09/24 10:08:08;;;;;;;;;;;;;;;;;;4771356;28;20245;-69
2022/09/24 10:10:34;;;;;;;;;;;;;;;;;;4806125;28;20239;-67
2022/09/24 10:13:00;;;;;;;;;;;;;;;;;;5006549;28;20378;-68
2022/09/24 10:15:26;;;;;;;;;;;;;;;;;;5029787;28;20978;-70
2022/09/24 10:17:52;;;;;;;;;;;;;;;;;;5029666;28;20385;-68
2022/09/24 10:20:18;;;;;;;;;;;;;;;;;;5029078;28;20428;-69
2022/09/24 10:22:44;;;;;;;;;;;;;;;;;;5030480;28;20429;-69
2022/09/24 10:25:10;;;;;;;;;;;;;;;;;;5029867;28;20397;-69
2022/09/24 10:27:36;;;;;;;;;;;;;;;;;;5029728;28;20823;-70
2022/09/24 10:32:47;;;;;;;;;;;;;;;;;;5034150;28;20377;-69
2022/09/24 10:35:13;;;;;;;;;;;;;;;;;;5033537;28;20379;-69
2022/09/24 10:37:39;;;;;;;;;;;;;;;;;;5033762;28;20437;-70
2022/09/24 10:40:05;;;;;;;;;;;;;;;;;;5033292;28;20223;-70
2022/09/24 10:42:31;;;;;;;;;;;;;;;;;;5033904;28;20702;-70
2022/09/24 10:44:57;;;;;;;;;;;;;;;;;;5033033;28;20418;-71
2022/09/24 10:47:23;;;;;;;;;;;;;;;;;;5032462;28;20128;-70
2022/09/24 10:49:48;;;;;;;;;;;;;;;;;;5033154;28;19905;-70
2022/09/24 10:52:16;;;;;;;;;;;;;;;;;;5032497;28;20295;-69
2022/09/24 10:54:42;;;;;;;;;;;;;;;;;;5032804;28;20713;-71
2022/09/24 10:57:08;;;;;;;;;;;;;;;;;;4922054;28;20428;-69
2022/09/24 10:59:34;;;;;;;;;;;;;;;;;;4811957;28;20240;-70
2022/09/24 11:02:00;;;;;;;;;;;;;;;;;;5031859;28;20362;-69
2022/09/24 11:04:26;;;;;;;;;;;;;;;;;;5031959;28;20378;-70
2022/09/24 11:06:52;;;;;;;;;;;;;;;;;;5031788;28;20886;-69
2022/09/24 11:09:17;;;;;;;;;;;;;;;;;;5032319;28;20371;-71
2022/09/24 11:11:44;;;;;;;;;;;;;;;;;;5032417;28;25142;-72
2022/09/24 11:14:10;;;;;;;;;;;;;;;;;;5032766;28;20112;-71
2022/09/24 11:16:37;;;;;;;;;;;;;;;;;;5032649;28;20157;-71
2022/09/24 11:19:03;;;;;;;;;;;;;;;;;;5032300;28;19982;-70
2022/09/24 11:21:29;;;;;;;;;;;;;;;;;;5032346;28;19905;-69
2022/09/24 11:23:55;;;;;;;;;;;;;;;;;;5032395;28;20412;-68
2022/09/24 11:26:21;;;;;;;;;;;;;;;;;;5032092;28;20270;-69
2022/09/24 11:28:47;;;;;;;;;;;;;;;;;;5032334;28;20460;-70
2022/09/24 11:31:13;;;;;;;;;;;;;;;;;;5029938;28;20148;-70
2022/09/24 11:33:39;;;;;;;;;;;;;;;;;;5032405;28;21024;-71
2022/09/24 11:36:05;;;;;;;;;;;;;;;;;;5032223;28;20392;-69
2022/09/24 11:38:30;;;;;;;;;;;;;;;;;;5032246;28;20457;-70
2022/09/24 11:40:56;;;;;;;;;;;;;;;;;;5032368;28;20371;-68
2022/09/24 11:43:22;;;;;;;;;;;;;;;;;;5030859;28;20177;-69
2022/09/24 11:45:48;;;;;;;;;;;;;;;;;;5031481;28;19924;-69
2022/09/24 11:48:14;;;;;;;;;;;;;;;;;;5032222;28;20300;-71
2022/09/24 11:50:40;;;;;;;;;;;;;;;;;;5032071;28;20131;-70
2022/09/24 11:53:06;;;;;;;;;;;;;;;;;;5032589;28;20262;-69
2022/09/24 11:55:33;;;;;;;;;;;;;;;;;;5032988;28;20124;-70
2022/09/24 11:57:59;;;;;;;;;;;;;;;;;;5032799;28;20119;-71
2022/09/24 12:00:24;;;;;;;;;;;;;;;;;;5031286;28;20357;-71
2022/09/24 12:02:50;;;;;;;;;;;;;;;;;;5032504;28;20159;-72
2022/09/24 12:05:18;;;;;;;;;;;;;;;;;;5031660;28;20563;-69
2022/09/24 12:07:44;;;;;;;;;;;;;;;;;;5031679;28;19923;-69
2022/09/24 12:10:11;;;;;;;;;;;;;;;;;;5032307;28;20432;-71
2022/09/24 12:12:37;;;;;;;;;;;;;;;;;;5030632;28;19970;-72
2022/09/24 12:15:03;;;;;;;;;;;;;;;;;;5031236;28;19924;-70
2022/09/24 12:17:28;;;;;;;;;;;;;;;;;;5030803;28;19909;-70
2022/09/24 12:19:54;;;;;;;;;;;;;;;;;;5031303;28;19913;-70
2022/09/24 12:22:20;;;;;;;;;;;;;;;;;;5031839;28;19905;-70
2022/09/24 12:24:46;;;;;;;;;;;;;;;;;;5031514;28;19909;-70
2022/09/24 12:27:12;;;;;;;;;;;;;;;;;;5031659;28;19909;-71
2022/09/24 12:35:07;;;;;;;;;;;;;;;;;;5031377;28;20396;-70
2022/09/24 12:37:33;;;;;;;;;;;;;;;;;;5031409;28;20346;-71
2022/09/24 12:39:59;;;;;;;;;;;;;;;;;;5031746;28;19952;-69
2022/09/24 12:42:25;;;;;;;;;;;;;;;;;;5030978;28;19915;-69
2022/09/24 12:44:51;;;;;;;;;;;;;;;;;;5031556;28;19980;-70
2022/09/24 12:47:17;;;;;;;;;;;;;;;;;;5031282;28;20385;-69
2022/09/24 12:49:43;;;;;;;;;;;;;;;;;;5031444;28;19912;-70
2022/09/24 12:52:10;;;;;;;;;;;;;;;;;;5031495;28;20357;-70
2022/09/24 12:54:36;;;;;;;;;;;;;;;;;;5031232;28;19905;-69
2022/09/24 12:57:02;;;;;;;;;;;;;;;;;;5028024;28;19905;-69
2022/09/24 12:59:28;;;;;;;;;;;;;;;;;;5030244;28;20362;-68
2022/09/24 13:01:54;;;;;;;;;;;;;;;;;;5031428;28;20493;-69
2022/09/24 13:04:20;;;;;;;;;;;;;;;;;;5031330;28;19905;-69
2022/09/24 13:06:47;;;;;;;;;;;;;;;;;;5024306;28;19919;-68
2022/09/24 13:09:13;;;;;;;;;;;;;;;;;;5030930;28;19913;-70
2022/09/24 13:11:39;;;;;;;;;;;;;;;;;;5030894;28;20023;-70
2022/09/24 13:14:05;;;;;;;;;;;;;;;;;;5029230;28;19967;-69
2022/09/24 13:16:31;;;;;;;;;;;;;;;;;;5030943;28;20286;-68
2022/09/24 13:18:57;;;;;;;;;;;;;;;;;;5030969;28;20350;-68
2022/09/24 13:21:23;;;;;;;;;;;;;;;;;;5031368;28;19905;-68
2022/09/24 13:23:49;;;;;;;;;;;;;;;;;;5030680;28;19958;-68
2022/09/24 13:26:15;;;;;;;;;;;;;;;;;;5030454;28;19905;-70
2022/09/24 13:28:41;;;;;;;;;;;;;;;;;;5030929;28;19915;-68
2022/09/24 13:31:06;;;;;;;;;;;;;;;;;;5030732;28;20374;-68
2022/09/24 13:33:33;;;;;;;;;;;;;;;;;;5031177;28;19952;-69
2022/09/24 13:36:00;;;;;;;;;;;;;;;;;;5030563;28;20274;-69
2022/09/24 13:38:26;;;;;;;;;;;;;;;;;;5030703;28;19963;-69
2022/09/24 13:40:52;;;;;;;;;;;;;;;;;;5030180;28;20355;-70
2022/09/24 13:43:18;;;;;;;;;;;;;;;;;;5030548;28;19913;-70
2022/09/24 13:45:44;;;;;;;;;;;;;;;;;;5030251;28;20402;-70
2022/09/24 13:48:10;;;;;;;;;;;;;;;;;;5030094;28;19924;-69
2022/09/24 13:50:36;;;;;;;;;;;;;;;;;;5030276;28;19936;-68
2022/09/24 13:53:03;;;;;;;;;;;;;;;;;;5030712;28;19951;-69
2022/09/24 13:55:29;;;;;;;;;;;;;;;;;;5030176;28;19911;-70
2022/09/24 13:57:55;;;;;;;;;;;;;;;;;;5030364;28;20012;-70
2022/09/24 14:00:21;;;;;;;;;;;;;;;;;;5030444;28;19995;-68
2022/09/24 14:02:47;;;;;;;;;;;;;;;;;;5030525;28;19955;-69
2022/09/24 14:05:13;;;;;;;;;;;;;;;;;;5023366;28;19909;-68
2022/09/24 14:07:39;;;;;;;;;;;;;;;;;;5029888;28;20007;-68
2022/09/24 14:10:05;;;;;;;;;;;;;;;;;;5029167;28;19913;-70
2022/09/24 14:12:31;;;;;;;;;;;;;;;;;;5029598;28;19912;-68
2022/09/24 14:14:57;;;;;;;;;;;;;;;;;;5027064;28;19944;-69
2022/09/24 14:17:23;;;;;;;;;;;;;;;;;;5029946;28;20449;-70
2022/09/24 14:19:48;;;;;;;;;;;;;;;;;;5029437;28;19913;-70
2022/09/24 14:22:14;;;;;;;;;;;;;;;;;;5030405;28;20374;-69
2022/09/24 14:24:40;;;;;;;;;;;;;;;;;;5029159;28;19913;-70
2022/09/24 14:27:06;;;;;;;;;;;;;;;;;;5029141;28;19956;-68
2022/09/24 14:29:32;;;;;;;;;;;;;;;;;;5029761;28;19905;-68
2022/09/24 14:31:58;;;;;;;;;;;;;;;;;;5029764;28;19909;-68
2022/09/24 14:34:24;;;;;;;;;;;;;;;;;;5029870;28;20012;-69
2022/09/24 14:36:50;;;;;;;;;;;;;;;;;;5030198;28;19905;-68
2022/09/24 14:39:16;;;;;;;;;;;;;;;;;;5028944;28;20297;-69
2022/09/24 14:41:42;;;;;;;;;;;;;;;;;;5029424;28;21054;-68
2022/09/24 14:44:08;;;;;;;;;;;;;;;;;;4915909;28;20773;-70
2022/09/24 14:46:34;;;;;;;;;;;;;;;;;;5030047;28;20375;-68
2022/09/24 14:49:00;;;;;;;;;;;;;;;;;;5029256;28;20316;-69
2022/09/24 14:51:26;;;;;;;;;;;;;;;;;;5028851;28;19916;-70
2022/09/24 14:53:52;;;;;;;;;;;;;;;;;;5027748;28;19905;-68
2022/09/24 14:56:19;;;;;;;;;;;;;;;;;;5030059;28;19907;-69
2022/09/24 14:58:44;;;;;;;;;;;;;;;;;;5029700;28;19912;-68
2022/09/24 15:01:12;;;;;;;;;;;;;;;;;;5029559;28;19909;-71
2022/09/24 15:03:38;;;;;;;;;;;;;;;;;;5029397;28;20000;-70
2022/09/24 15:06:04;;;;;;;;;;;;;;;;;;5029626;28;20335;-71
2022/09/24 15:08:30;;;;;;;;;;;;;;;;;;5029119;28;19995;-70
2022/09/24 15:10:56;;;;;;;;;;;;;;;;;;5029455;28;19905;-71
2022/09/24 15:13:22;;;;;;;;;;;;;;;;;;5029518;28;19946;-67
2022/09/24 15:15:49;;;;;;;;;;;;;;;;;;5028637;28;20392;-69
2022/09/24 15:18:17;;;;;;;;;;;;;;;;;;5026598;28;20170;-69
2022/09/24 15:20:43;;;;;;;;;;;;;;;;;;5032914;28;19905;-68
2022/09/24 15:23:09;;;;;;;;;;;;;;;;;;5032236;28;19913;-69
2022/09/24 15:25:35;;;;;;;;;;;;;;;;;;5032569;28;20008;-70
2022/09/24 15:28:01;;;;;;;;;;;;;;;;;;5033018;28;19976;-71
2022/09/24 15:30:27;;;;;;;;;;;;;;;;;;5032897;28;19912;-67
2022/09/24 15:32:53;;;;;;;;;;;;;;;;;;5032634;28;19905;-70
2022/09/24 15:35:19;;;;;;;;;;;;;;;;;;5031174;28;19908;-69
2022/09/24 15:37:45;;;;;;;;;;;;;;;;;;5032361;28;19911;-69
2022/09/24 15:40:11;;;;;;;;;;;;;;;;;;5032884;28;19991;-70
2022/09/24 15:42:37;;;;;;;;;;;;;;;;;;5032558;28;20692;-70
2022/09/24 15:45:03;;;;;;;;;;;;;;;;;;5032358;28;19992;-69
2022/09/24 15:47:29;;;;;;;;;;;;;;;;;;5033028;28;19909;-68
2022/09/24 15:49:55;;;;;;;;;;;;;;;;;;5032649;28;19909;-69
2022/09/24 15:52:23;;;;;;;;;;;;;;;;;;5031371;28;19913;-69
2022/09/24 15:54:49;;;;;;;;;;;;;;;;;;5030957;28;19945;-70
2022/09/24 15:57:15;;;;;;;;;;;;;;;;;;5032329;28;19936;-70
2022/09/24 15:59:41;;;;;;;;;;;;;;;;;;5031659;28;19905;-70
2022/09/24 16:02:07;;;;;;;;;;;;;;;;;;5031881;28;19952;-69
2022/09/24 16:04:33;;;;;;;;;;;;;;;;;;5032318;28;19951;-68
2022/09/24 16:06:59;;;;;;;;;;;;;;;;;;5029997;28;19913;-69
2022/09/24 16:09:24;;;;;;;;;;;;;;;;;;5032205;28;19941;-69
2022/09/24 16:11:50;;;;;;;;;;;;;;;;;;5031937;28;20289;-71
2022/09/24 16:14:16;;;;;;;;;;;;;;;;;;5032196;28;20330;-69
2022/09/24 16:16:42;;;;;;;;;;;;;;;;;;5031842;28;20497;-70
2022/09/24 16:19:08;;;;;;;;;;;;;;;;;;5032131;28;19959;-70
2022/09/24 16:21:34;;;;;;;;;;;;;;;;;;5030773;28;20396;-68
2022/09/24 16:24:00;;;;;;;;;;;;;;;;;;5032338;28;19935;-68
2022/09/24 16:26:26;;;;;;;;;;;;;;;;;;5031603;28;20278;-71
2022/09/24 16:28:52;;;;;;;;;;;;;;;;;;5030745;28;19913;-72
2022/09/24 16:31:18;;;;;;;;;;;;;;;;;;5031579;28;19911;-70
2022/09/24 16:33:44;;;;;;;;;;;;;;;;;;5031924;28;19987;-71
2022/09/24 16:36:10;;;;;;;;;;;;;;;;;;5031150;28;19915;-72
2022/09/24 16:38:35;;;;;;;;;;;;;;;;;;5031300;28;19909;-71
2022/09/24 16:41:01;;;;;;;;;;;;;;;;;;5018527;28;20296;-69
2022/09/24 16:43:27;;;;;;;;;;;;;;;;;;5028778;28;20462;-71
2022/09/24 16:45:53;;;;;;;;;;;;;;;;;;5030732;28;20415;-70
2022/09/24 16:48:19;;;;;;;;;;;;;;;;;;5030328;28;20406;-72
2022/09/24 16:50:48;;;;;;;;;;;;;;;;;;5032155;28;20371;-70
2022/09/24 16:53:14;;;;;;;;;;;;;;;;;;5031763;28;20462;-70